sensor_id;sensor_type;location;lat;lon;timestamp;P1;durP1;ratioP1;P2;durP2;ratioP2
2998;SDS011;1509;51.964;7.628;2022-08-14T00:02:15;8.33;;;7.23;;
2998;SDS011;1509;51.964;7.628;2022-08-14T00:04:41;8.73;;;7.70;;
2998;SDS011;1509;51.964;7.628;2022-08-14T00:07:07;8.37;;;7.53;;
2998;SDS011;1509;51.964;7.628;2022-08-14T00:09:34;10.70;;;7.80;;
2998;SDS011;1509;51.964;7.628;2022-08-14T00:12:00;11.43;;;9.40;;
2998;SDS011;1509;51.964;7.628;2022-08-14T00:14:26;10.57;;;8.87;;
2998;SDS011;1509;51.964;7.628;2022-08-14T00:16:52;11.40;;;8.50;;
2998;SDS011;1509;51.964;7.628;2022-08-14T00:19:19;8.57;;;7.40;;
2998;SDS011;1509;51.964;7.628;2022-08-14T00:21:44;8.83;;;7.90;;
2998;SDS011;1509;51.964;7.628;2022-08-14T00:24:10;11.70;;;9.37;;
2998;SDS011;1509;51.964;7.628;2022-08-14T00:26:35;10.70;;;9.60;;
2998;SDS011;1509;51.964;7.628;2022-08-14T00:29:01;10.50;;;8.60;;
2998;SDS011;1509;51.964;7.628;2022-08-14T00:31:27;9.10;;;8.13;;
2998;SDS011;1509;51.964;7.628;2022-08-14T00:33:54;10.33;;;8.90;;
2998;SDS011;1509;51.964;7.628;2022-08-14T00:36:21;9.47;;;8.43;;
2998;SDS011;1509;51.964;7.628;2022-08-14T00:38:47;9.93;;;8.57;;
2998;SDS011;1509;51.964;7.628;2022-08-14T00:41:13;8.30;;;7.50;;
2998;SDS011;1509;51.964;7.628;2022-08-14T00:43:39;9.27;;;8.27;;
2998;SDS011;1509;51.964;7.628;2022-08-14T00:46:07;13.00;;;8.50;;
2998;SDS011;1509;51.964;7.628;2022-08-14T00:48:35;10.53;;;8.93;;
2998;SDS011;1509;51.964;7.628;2022-08-14T00:51:03;9.43;;;8.27;;
2998;SDS011;1509;51.964;7.628;2022-08-14T00:53:30;10.27;;;9.27;;
2998;SDS011;1509;51.964;7.628;2022-08-14T00:55:56;11.30;;;10.20;;
2998;SDS011;1509;51.964;7.628;2022-08-14T00:58:22;15.50;;;10.73;;
2998;SDS011;1509;51.964;7.628;2022-08-14T01:01:07;9.13;;;8.07;;
2998;SDS011;1509;51.964;7.628;2022-08-14T01:03:35;10.03;;;9.03;;
2998;SDS011;1509;51.964;7.628;2022-08-14T01:06:04;9.50;;;8.60;;
2998;SDS011;1509;51.964;7.628;2022-08-14T01:08:33;9.87;;;8.87;;
2998;SDS011;1509;51.964;7.628;2022-08-14T01:11:00;11.03;;;8.93;;
2998;SDS011;1509;51.964;7.628;2022-08-14T01:13:33;13.60;;;8.97;;
2998;SDS011;1509;51.964;7.628;2022-08-14T01:16:02;10.50;;;8.30;;
2998;SDS011;1509;51.964;7.628;2022-08-14T01:18:31;9.20;;;8.30;;
2998;SDS011;1509;51.964;7.628;2022-08-14T01:21:33;10.77;;;9.60;;
2998;SDS011;1509;51.964;7.628;2022-08-14T01:24:03;10.10;;;8.93;;
2998;SDS011;1509;51.964;7.628;2022-08-14T01:26:31;10.40;;;9.20;;
2998;SDS011;1509;51.964;7.628;2022-08-14T01:28:59;10.90;;;9.63;;
2998;SDS011;1509;51.964;7.628;2022-08-14T01:31:29;10.43;;;9.43;;
2998;SDS011;1509;51.964;7.628;2022-08-14T01:33:57;9.23;;;8.13;;
2998;SDS011;1509;51.964;7.628;2022-08-14T01:36:26;10.10;;;9.10;;
2998;SDS011;1509;51.964;7.628;2022-08-14T01:39:00;10.87;;;8.57;;
2998;SDS011;1509;51.964;7.628;2022-08-14T01:41:28;10.27;;;9.10;;
2998;SDS011;1509;51.964;7.628;2022-08-14T01:44:01;12.37;;;8.73;;
2998;SDS011;1509;51.964;7.628;2022-08-14T01:46:34;10.83;;;9.50;;
2998;SDS011;1509;51.964;7.628;2022-08-14T01:49:02;11.70;;;8.57;;
2998;SDS011;1509;51.964;7.628;2022-08-14T01:51:32;10.17;;;8.50;;
2998;SDS011;1509;51.964;7.628;2022-08-14T01:53:59;11.93;;;9.93;;
2998;SDS011;1509;51.964;7.628;2022-08-14T01:56:30;10.60;;;8.90;;
2998;SDS011;1509;51.964;7.628;2022-08-14T01:59:00;10.17;;;9.10;;
2998;SDS011;1509;51.964;7.628;2022-08-14T02:01:26;10.33;;;9.13;;
2998;SDS011;1509;51.964;7.628;2022-08-14T02:03:52;10.13;;;9.03;;
2998;SDS011;1509;51.964;7.628;2022-08-14T02:06:18;10.93;;;8.40;;
2998;SDS011;1509;51.964;7.628;2022-08-14T02:08:43;9.43;;;8.43;;
2998;SDS011;1509;51.964;7.628;2022-08-14T02:11:10;9.30;;;8.40;;
2998;SDS011;1509;51.964;7.628;2022-08-14T02:13:47;11.17;;;8.77;;
2998;SDS011;1509;51.964;7.628;2022-08-14T02:16:24;12.10;;;8.60;;
2998;SDS011;1509;51.964;7.628;2022-08-14T02:18:58;13.27;;;9.27;;
2998;SDS011;1509;51.964;7.628;2022-08-14T02:21:27;11.60;;;8.90;;
2998;SDS011;1509;51.964;7.628;2022-08-14T02:23:57;10.23;;;8.73;;
2998;SDS011;1509;51.964;7.628;2022-08-14T02:26:28;10.40;;;9.40;;
2998;SDS011;1509;51.964;7.628;2022-08-14T02:29:01;11.40;;;9.00;;
2998;SDS011;1509;51.964;7.628;2022-08-14T02:31:38;10.10;;;9.20;;
2998;SDS011;1509;51.964;7.628;2022-08-14T02:34:06;10.30;;;9.23;;
2998;SDS011;1509;51.964;7.628;2022-08-14T02:36:35;14.33;;;9.67;;
2998;SDS011;1509;51.964;7.628;2022-08-14T02:39:01;13.13;;;9.67;;
2998;SDS011;1509;51.964;7.628;2022-08-14T02:41:29;10.90;;;9.30;;
2998;SDS011;1509;51.964;7.628;2022-08-14T02:43:56;9.83;;;8.67;;
2998;SDS011;1509;51.964;7.628;2022-08-14T02:46:22;10.37;;;9.00;;
2998;SDS011;1509;51.964;7.628;2022-08-14T02:48:47;10.43;;;8.80;;
2998;SDS011;1509;51.964;7.628;2022-08-14T02:51:14;12.57;;;9.20;;
2998;SDS011;1509;51.964;7.628;2022-08-14T02:53:41;10.27;;;9.20;;
2998;SDS011;1509;51.964;7.628;2022-08-14T02:56:08;10.23;;;9.07;;
2998;SDS011;1509;51.964;7.628;2022-08-14T02:58:40;13.03;;;9.93;;
2998;SDS011;1509;51.964;7.628;2022-08-14T03:01:11;11.50;;;8.77;;
2998;SDS011;1509;51.964;7.628;2022-08-14T03:03:47;10.37;;;9.30;;
2998;SDS011;1509;51.964;7.628;2022-08-14T03:06:14;10.77;;;8.97;;
2998;SDS011;1509;51.964;7.628;2022-08-14T03:08:41;10.97;;;9.77;;
2998;SDS011;1509;51.964;7.628;2022-08-14T03:11:10;9.90;;;8.80;;
2998;SDS011;1509;51.964;7.628;2022-08-14T03:13:37;11.27;;;10.10;;
2998;SDS011;1509;51.964;7.628;2022-08-14T03:16:05;10.23;;;9.23;;
2998;SDS011;1509;51.964;7.628;2022-08-14T03:18:33;11.23;;;9.50;;
2998;SDS011;1509;51.964;7.628;2022-08-14T03:21:03;13.47;;;9.97;;
2998;SDS011;1509;51.964;7.628;2022-08-14T03:23:31;11.70;;;9.50;;
2998;SDS011;1509;51.964;7.628;2022-08-14T03:26:00;11.23;;;9.60;;
2998;SDS011;1509;51.964;7.628;2022-08-14T03:28:27;11.40;;;9.93;;
2998;SDS011;1509;51.964;7.628;2022-08-14T03:30:53;10.73;;;9.63;;
2998;SDS011;1509;51.964;7.628;2022-08-14T03:33:20;11.80;;;10.27;;
2998;SDS011;1509;51.964;7.628;2022-08-14T03:35:46;13.63;;;10.00;;
2998;SDS011;1509;51.964;7.628;2022-08-14T03:38:11;11.13;;;9.93;;
2998;SDS011;1509;51.964;7.628;2022-08-14T03:40:38;11.63;;;10.53;;
2998;SDS011;1509;51.964;7.628;2022-08-14T03:43:05;13.40;;;11.50;;
2998;SDS011;1509;51.964;7.628;2022-08-14T03:45:32;12.37;;;10.20;;
2998;SDS011;1509;51.964;7.628;2022-08-14T03:47:59;11.97;;;10.40;;
2998;SDS011;1509;51.964;7.628;2022-08-14T03:50:37;11.57;;;10.13;;
2998;SDS011;1509;51.964;7.628;2022-08-14T03:53:03;11.20;;;10.10;;
2998;SDS011;1509;51.964;7.628;2022-08-14T03:55:29;16.20;;;11.03;;
2998;SDS011;1509;51.964;7.628;2022-08-14T03:57:55;11.83;;;9.83;;
2998;SDS011;1509;51.964;7.628;2022-08-14T04:00:21;13.87;;;10.07;;
2998;SDS011;1509;51.964;7.628;2022-08-14T04:02:47;11.73;;;10.53;;
2998;SDS011;1509;51.964;7.628;2022-08-14T04:05:13;11.63;;;10.10;;
2998;SDS011;1509;51.964;7.628;2022-08-14T04:07:39;12.53;;;9.03;;
2998;SDS011;1509;51.964;7.628;2022-08-14T04:10:05;34.67;;;19.60;;
2998;SDS011;1509;51.964;7.628;2022-08-14T04:12:32;11.30;;;10.00;;
2998;SDS011;1509;51.964;7.628;2022-08-14T04:14:58;11.70;;;10.50;;
2998;SDS011;1509;51.964;7.628;2022-08-14T04:17:23;12.00;;;10.60;;
2998;SDS011;1509;51.964;7.628;2022-08-14T04:19:50;13.20;;;9.80;;
2998;SDS011;1509;51.964;7.628;2022-08-14T04:22:15;11.23;;;10.03;;
2998;SDS011;1509;51.964;7.628;2022-08-14T04:24:41;11.20;;;10.10;;
2998;SDS011;1509;51.964;7.628;2022-08-14T04:27:10;10.70;;;9.70;;
2998;SDS011;1509;51.964;7.628;2022-08-14T04:29:38;12.07;;;9.20;;
2998;SDS011;1509;51.964;7.628;2022-08-14T04:32:06;11.73;;;9.67;;
2998;SDS011;1509;51.964;7.628;2022-08-14T04:34:34;11.37;;;10.17;;
2998;SDS011;1509;51.964;7.628;2022-08-14T04:37:07;11.10;;;9.40;;
2998;SDS011;1509;51.964;7.628;2022-08-14T04:39:52;10.87;;;9.77;;
2998;SDS011;1509;51.964;7.628;2022-08-14T04:42:37;11.97;;;9.47;;
2998;SDS011;1509;51.964;7.628;2022-08-14T04:45:23;13.50;;;8.80;;
2998;SDS011;1509;51.964;7.628;2022-08-14T04:47:50;11.83;;;10.60;;
2998;SDS011;1509;51.964;7.628;2022-08-14T04:50:35;10.60;;;9.50;;
2998;SDS011;1509;51.964;7.628;2022-08-14T04:53:05;10.90;;;9.80;;
2998;SDS011;1509;51.964;7.628;2022-08-14T04:55:30;10.73;;;9.03;;
2998;SDS011;1509;51.964;7.628;2022-08-14T04:57:57;12.27;;;9.83;;
2998;SDS011;1509;51.964;7.628;2022-08-14T05:00:23;10.10;;;8.53;;
2998;SDS011;1509;51.964;7.628;2022-08-14T05:02:49;11.20;;;10.00;;
2998;SDS011;1509;51.964;7.628;2022-08-14T05:05:14;11.80;;;8.90;;
2998;SDS011;1509;51.964;7.628;2022-08-14T05:07:40;9.43;;;8.50;;
2998;SDS011;1509;51.964;7.628;2022-08-14T05:10:06;10.90;;;9.60;;
2998;SDS011;1509;51.964;7.628;2022-08-14T05:12:33;9.60;;;8.70;;
2998;SDS011;1509;51.964;7.628;2022-08-14T05:14:58;11.27;;;9.47;;
2998;SDS011;1509;51.964;7.628;2022-08-14T05:17:24;10.27;;;9.13;;
2998;SDS011;1509;51.964;7.628;2022-08-14T05:19:50;10.53;;;9.53;;
2998;SDS011;1509;51.964;7.628;2022-08-14T05:22:17;11.37;;;9.00;;
2998;SDS011;1509;51.964;7.628;2022-08-14T05:24:43;15.33;;;9.57;;
2998;SDS011;1509;51.964;7.628;2022-08-14T05:27:11;13.07;;;9.30;;
2998;SDS011;1509;51.964;7.628;2022-08-14T05:29:37;10.00;;;8.97;;
2998;SDS011;1509;51.964;7.628;2022-08-14T05:32:03;10.07;;;9.10;;
2998;SDS011;1509;51.964;7.628;2022-08-14T05:34:31;10.40;;;9.40;;
2998;SDS011;1509;51.964;7.628;2022-08-14T05:36:58;11.93;;;10.73;;
2998;SDS011;1509;51.964;7.628;2022-08-14T05:39:25;10.40;;;9.40;;
2998;SDS011;1509;51.964;7.628;2022-08-14T05:41:51;10.60;;;9.30;;
2998;SDS011;1509;51.964;7.628;2022-08-14T05:44:17;10.93;;;9.40;;
2998;SDS011;1509;51.964;7.628;2022-08-14T05:46:43;11.00;;;9.80;;
2998;SDS011;1509;51.964;7.628;2022-08-14T05:49:08;13.13;;;9.17;;
2998;SDS011;1509;51.964;7.628;2022-08-14T05:51:34;9.80;;;8.90;;
2998;SDS011;1509;51.964;7.628;2022-08-14T05:54:00;14.23;;;9.80;;
2998;SDS011;1509;51.964;7.628;2022-08-14T05:56:26;10.73;;;9.10;;
2998;SDS011;1509;51.964;7.628;2022-08-14T05:58:52;9.90;;;8.10;;
2998;SDS011;1509;51.964;7.628;2022-08-14T06:01:18;10.83;;;8.77;;
2998;SDS011;1509;51.964;7.628;2022-08-14T06:03:43;10.80;;;9.80;;
2998;SDS011;1509;51.964;7.628;2022-08-14T06:06:09;9.60;;;8.50;;
2998;SDS011;1509;51.964;7.628;2022-08-14T06:08:35;9.90;;;8.90;;
2998;SDS011;1509;51.964;7.628;2022-08-14T06:11:02;10.77;;;9.67;;
2998;SDS011;1509;51.964;7.628;2022-08-14T06:13:30;14.30;;;9.30;;
2998;SDS011;1509;51.964;7.628;2022-08-14T06:15:57;9.97;;;9.07;;
2998;SDS011;1509;51.964;7.628;2022-08-14T06:18:23;11.00;;;9.27;;
2998;SDS011;1509;51.964;7.628;2022-08-14T06:20:49;10.40;;;9.40;;
2998;SDS011;1509;51.964;7.628;2022-08-14T06:23:15;9.63;;;8.57;;
2998;SDS011;1509;51.964;7.628;2022-08-14T06:25:41;10.27;;;9.27;;
2998;SDS011;1509;51.964;7.628;2022-08-14T06:28:14;11.27;;;9.50;;
2998;SDS011;1509;51.964;7.628;2022-08-14T06:30:40;10.03;;;8.83;;
2998;SDS011;1509;51.964;7.628;2022-08-14T06:33:06;10.10;;;8.97;;
2998;SDS011;1509;51.964;7.628;2022-08-14T06:35:32;10.80;;;9.10;;
2998;SDS011;1509;51.964;7.628;2022-08-14T06:37:58;9.90;;;8.90;;
2998;SDS011;1509;51.964;7.628;2022-08-14T06:43:02;10.90;;;9.70;;
2998;SDS011;1509;51.964;7.628;2022-08-14T06:45:30;10.03;;;9.03;;
2998;SDS011;1509;51.964;7.628;2022-08-14T06:47:56;10.57;;;9.53;;
2998;SDS011;1509;51.964;7.628;2022-08-14T06:50:22;11.03;;;8.53;;
2998;SDS011;1509;51.964;7.628;2022-08-14T06:52:49;10.53;;;9.10;;
2998;SDS011;1509;51.964;7.628;2022-08-14T06:55:15;10.80;;;9.27;;
2998;SDS011;1509;51.964;7.628;2022-08-14T06:57:43;9.63;;;8.63;;
2998;SDS011;1509;51.964;7.628;2022-08-14T07:00:23;11.10;;;9.37;;
2998;SDS011;1509;51.964;7.628;2022-08-14T07:02:50;9.40;;;8.40;;
2998;SDS011;1509;51.964;7.628;2022-08-14T07:05:35;9.83;;;8.90;;
2998;SDS011;1509;51.964;7.628;2022-08-14T07:10:43;11.80;;;9.80;;
2998;SDS011;1509;51.964;7.628;2022-08-14T07:13:10;11.60;;;9.53;;
2998;SDS011;1509;51.964;7.628;2022-08-14T07:15:38;10.80;;;9.70;;
2998;SDS011;1509;51.964;7.628;2022-08-14T07:18:09;12.27;;;9.60;;
2998;SDS011;1509;51.964;7.628;2022-08-14T07:20:36;10.50;;;9.40;;
2998;SDS011;1509;51.964;7.628;2022-08-14T07:23:04;13.97;;;9.70;;
2998;SDS011;1509;51.964;7.628;2022-08-14T07:25:31;10.10;;;9.17;;
2998;SDS011;1509;51.964;7.628;2022-08-14T07:27:57;10.50;;;8.80;;
2998;SDS011;1509;51.964;7.628;2022-08-14T07:30:23;9.87;;;8.87;;
2998;SDS011;1509;51.964;7.628;2022-08-14T07:32:49;10.00;;;9.00;;
2998;SDS011;1509;51.964;7.628;2022-08-14T07:35:15;10.13;;;8.93;;
2998;SDS011;1509;51.964;7.628;2022-08-14T07:37:41;9.80;;;8.80;;
2998;SDS011;1509;51.964;7.628;2022-08-14T07:40:07;10.03;;;9.03;;
2998;SDS011;1509;51.964;7.628;2022-08-14T07:42:33;11.30;;;9.60;;
2998;SDS011;1509;51.964;7.628;2022-08-14T07:44:59;11.77;;;8.70;;
2998;SDS011;1509;51.964;7.628;2022-08-14T07:47:25;10.77;;;9.77;;
2998;SDS011;1509;51.964;7.628;2022-08-14T07:52:28;10.40;;;9.30;;
2998;SDS011;1509;51.964;7.628;2022-08-14T07:54:54;10.90;;;9.77;;
2998;SDS011;1509;51.964;7.628;2022-08-14T07:57:20;12.63;;;10.40;;
2998;SDS011;1509;51.964;7.628;2022-08-14T07:59:46;12.07;;;9.10;;
2998;SDS011;1509;51.964;7.628;2022-08-14T08:02:15;11.37;;;9.90;;
2998;SDS011;1509;51.964;7.628;2022-08-14T08:04:43;9.47;;;8.50;;
2998;SDS011;1509;51.964;7.628;2022-08-14T08:07:10;11.87;;;9.87;;
2998;SDS011;1509;51.964;7.628;2022-08-14T08:09:45;12.13;;;9.70;;
2998;SDS011;1509;51.964;7.628;2022-08-14T08:12:18;11.07;;;9.87;;
2998;SDS011;1509;51.964;7.628;2022-08-14T08:14:44;9.73;;;8.83;;
2998;SDS011;1509;51.964;7.628;2022-08-14T08:17:15;10.40;;;9.30;;
2998;SDS011;1509;51.964;7.628;2022-08-14T08:19:42;9.50;;;8.60;;
2998;SDS011;1509;51.964;7.628;2022-08-14T08:22:09;10.83;;;9.60;;
2998;SDS011;1509;51.964;7.628;2022-08-14T08:24:35;10.80;;;9.30;;
2998;SDS011;1509;51.964;7.628;2022-08-14T08:27:01;11.33;;;9.60;;
2998;SDS011;1509;51.964;7.628;2022-08-14T08:29:27;10.77;;;9.67;;
2998;SDS011;1509;51.964;7.628;2022-08-14T08:31:52;9.90;;;8.90;;
2998;SDS011;1509;51.964;7.628;2022-08-14T08:34:18;10.67;;;9.67;;
2998;SDS011;1509;51.964;7.628;2022-08-14T08:36:45;10.50;;;9.20;;
2998;SDS011;1509;51.964;7.628;2022-08-14T08:39:11;9.03;;;8.07;;
2998;SDS011;1509;51.964;7.628;2022-08-14T08:41:43;10.03;;;9.03;;
2998;SDS011;1509;51.964;7.628;2022-08-14T08:44:11;9.60;;;8.60;;
2998;SDS011;1509;51.964;7.628;2022-08-14T08:46:38;9.40;;;8.50;;
2998;SDS011;1509;51.964;7.628;2022-08-14T08:49:04;10.20;;;9.20;;
2998;SDS011;1509;51.964;7.628;2022-08-14T08:51:34;9.67;;;8.83;;
2998;SDS011;1509;51.964;7.628;2022-08-14T08:54:09;9.63;;;8.73;;
2998;SDS011;1509;51.964;7.628;2022-08-14T08:56:40;8.97;;;7.90;;
2998;SDS011;1509;51.964;7.628;2022-08-14T08:59:15;8.70;;;7.90;;
2998;SDS011;1509;51.964;7.628;2022-08-14T09:01:45;8.67;;;7.80;;
2998;SDS011;1509;51.964;7.628;2022-08-14T09:04:18;8.07;;;7.27;;
2998;SDS011;1509;51.964;7.628;2022-08-14T09:06:45;8.10;;;7.40;;
2998;SDS011;1509;51.964;7.628;2022-08-14T09:09:19;7.93;;;6.73;;
2998;SDS011;1509;51.964;7.628;2022-08-14T09:11:46;7.17;;;6.57;;
2998;SDS011;1509;51.964;7.628;2022-08-14T09:14:11;7.40;;;6.70;;
2998;SDS011;1509;51.964;7.628;2022-08-14T09:16:37;7.43;;;6.73;;
2998;SDS011;1509;51.964;7.628;2022-08-14T09:19:03;6.60;;;6.00;;
2998;SDS011;1509;51.964;7.628;2022-08-14T09:21:29;6.43;;;5.73;;
2998;SDS011;1509;51.964;7.628;2022-08-14T09:23:59;6.63;;;5.93;;
2998;SDS011;1509;51.964;7.628;2022-08-14T09:26:25;6.63;;;6.07;;
2998;SDS011;1509;51.964;7.628;2022-08-14T09:28:51;7.43;;;6.33;;
2998;SDS011;1509;51.964;7.628;2022-08-14T09:31:17;7.80;;;7.03;;
2998;SDS011;1509;51.964;7.628;2022-08-14T09:47:45;6.23;;;5.60;;
2998;SDS011;1509;51.964;7.628;2022-08-14T09:50:23;6.53;;;5.93;;
2998;SDS011;1509;51.964;7.628;2022-08-14T09:55:26;6.43;;;5.30;;
2998;SDS011;1509;51.964;7.628;2022-08-14T10:00:43;6.77;;;6.17;;
2998;SDS011;1509;51.964;7.628;2022-08-14T10:03:11;6.07;;;5.57;;
2998;SDS011;1509;51.964;7.628;2022-08-14T10:05:38;5.60;;;5.10;;
2998;SDS011;1509;51.964;7.628;2022-08-14T10:08:16;6.40;;;5.80;;
2998;SDS011;1509;51.964;7.628;2022-08-14T10:10:44;5.50;;;5.00;;
2998;SDS011;1509;51.964;7.628;2022-08-14T10:13:21;6.27;;;5.70;;
2998;SDS011;1509;51.964;7.628;2022-08-14T10:15:49;5.50;;;5.00;;
2998;SDS011;1509;51.964;7.628;2022-08-14T10:18:16;6.00;;;5.50;;
2998;SDS011;1509;51.964;7.628;2022-08-14T10:23:19;6.27;;;5.77;;
2998;SDS011;1509;51.964;7.628;2022-08-14T10:25:47;7.00;;;5.23;;
2998;SDS011;1509;51.964;7.628;2022-08-14T10:28:15;5.37;;;4.97;;
2998;SDS011;1509;51.964;7.628;2022-08-14T10:30:43;5.67;;;5.10;;
2998;SDS011;1509;51.964;7.628;2022-08-14T10:33:22;6.20;;;5.60;;
2998;SDS011;1509;51.964;7.628;2022-08-14T10:35:53;5.00;;;4.60;;
2998;SDS011;1509;51.964;7.628;2022-08-14T10:38:27;5.60;;;5.10;;
2998;SDS011;1509;51.964;7.628;2022-08-14T10:40:56;7.43;;;6.80;;
2998;SDS011;1509;51.964;7.628;2022-08-14T10:43:38;7.00;;;6.40;;
2998;SDS011;1509;51.964;7.628;2022-08-14T10:46:16;8.47;;;5.50;;
2998;SDS011;1509;51.964;7.628;2022-08-14T10:49:04;6.23;;;4.63;;
2998;SDS011;1509;51.964;7.628;2022-08-14T10:51:29;5.50;;;5.00;;
2998;SDS011;1509;51.964;7.628;2022-08-14T10:53:55;5.63;;;5.13;;
2998;SDS011;1509;51.964;7.628;2022-08-14T10:56:29;5.13;;;4.73;;
2998;SDS011;1509;51.964;7.628;2022-08-14T10:59:06;5.30;;;4.90;;
2998;SDS011;1509;51.964;7.628;2022-08-14T11:01:33;5.13;;;4.70;;
2998;SDS011;1509;51.964;7.628;2022-08-14T11:04:02;5.20;;;4.70;;
2998;SDS011;1509;51.964;7.628;2022-08-14T11:06:29;4.77;;;4.37;;
2998;SDS011;1509;51.964;7.628;2022-08-14T11:08:56;5.53;;;4.97;;
2998;SDS011;1509;51.964;7.628;2022-08-14T11:11:23;5.20;;;4.70;;
2998;SDS011;1509;51.964;7.628;2022-08-14T11:13:53;5.20;;;4.80;;
2998;SDS011;1509;51.964;7.628;2022-08-14T11:16:21;5.80;;;5.23;;
2998;SDS011;1509;51.964;7.628;2022-08-14T11:18:48;5.03;;;4.63;;
2998;SDS011;1509;51.964;7.628;2022-08-14T11:21:16;5.30;;;4.80;;
2998;SDS011;1509;51.964;7.628;2022-08-14T11:23:45;5.23;;;4.77;;
2998;SDS011;1509;51.964;7.628;2022-08-14T11:26:12;5.67;;;4.57;;
2998;SDS011;1509;51.964;7.628;2022-08-14T11:28:39;5.20;;;4.80;;
2998;SDS011;1509;51.964;7.628;2022-08-14T11:31:08;4.80;;;4.40;;
2998;SDS011;1509;51.964;7.628;2022-08-14T11:33:34;5.60;;;5.10;;
2998;SDS011;1509;51.964;7.628;2022-08-14T11:36:03;5.07;;;4.60;;
2998;SDS011;1509;51.964;7.628;2022-08-14T11:38:36;5.37;;;4.93;;
2998;SDS011;1509;51.964;7.628;2022-08-14T11:41:04;4.90;;;4.07;;
2998;SDS011;1509;51.964;7.628;2022-08-14T11:43:31;5.87;;;4.70;;
2998;SDS011;1509;51.964;7.628;2022-08-14T11:46:02;4.10;;;3.70;;
2998;SDS011;1509;51.964;7.628;2022-08-14T11:48:27;4.20;;;3.90;;
2998;SDS011;1509;51.964;7.628;2022-08-14T11:50:53;4.93;;;4.43;;
2998;SDS011;1509;51.964;7.628;2022-08-14T11:53:24;4.80;;;4.40;;
2998;SDS011;1509;51.964;7.628;2022-08-14T11:55:58;5.13;;;4.63;;
2998;SDS011;1509;51.964;7.628;2022-08-14T11:58:30;5.10;;;4.70;;
2998;SDS011;1509;51.964;7.628;2022-08-14T12:01:04;6.63;;;4.50;;
2998;SDS011;1509;51.964;7.628;2022-08-14T12:03:46;5.00;;;4.60;;
2998;SDS011;1509;51.964;7.628;2022-08-14T12:08:39;5.20;;;4.70;;
2998;SDS011;1509;51.964;7.628;2022-08-14T12:11:05;5.40;;;5.00;;
2998;SDS011;1509;51.964;7.628;2022-08-14T12:13:32;5.60;;;5.10;;
2998;SDS011;1509;51.964;7.628;2022-08-14T12:16:03;5.30;;;4.80;;
2998;SDS011;1509;51.964;7.628;2022-08-14T12:18:35;5.33;;;4.90;;
2998;SDS011;1509;51.964;7.628;2022-08-14T12:21:16;4.83;;;4.33;;
2998;SDS011;1509;51.964;7.628;2022-08-14T12:23:44;4.70;;;4.30;;
2998;SDS011;1509;51.964;7.628;2022-08-14T12:26:15;5.07;;;4.53;;
2998;SDS011;1509;51.964;7.628;2022-08-14T12:28:44;5.10;;;4.60;;
2998;SDS011;1509;51.964;7.628;2022-08-14T12:31:15;5.00;;;4.50;;
2998;SDS011;1509;51.964;7.628;2022-08-14T12:33:54;5.47;;;5.07;;
2998;SDS011;1509;51.964;7.628;2022-08-14T12:36:26;6.30;;;5.10;;
2998;SDS011;1509;51.964;7.628;2022-08-14T12:38:58;4.83;;;4.43;;
2998;SDS011;1509;51.964;7.628;2022-08-14T12:41:26;5.30;;;4.80;;
2998;SDS011;1509;51.964;7.628;2022-08-14T12:43:55;5.50;;;5.00;;
2998;SDS011;1509;51.964;7.628;2022-08-14T12:46:27;5.67;;;5.17;;
2998;SDS011;1509;51.964;7.628;2022-08-14T12:48:56;4.67;;;4.27;;
2998;SDS011;1509;51.964;7.628;2022-08-14T12:51:25;5.33;;;4.83;;
2998;SDS011;1509;51.964;7.628;2022-08-14T12:53:53;5.03;;;4.63;;
2998;SDS011;1509;51.964;7.628;2022-08-14T12:56:20;5.57;;;5.07;;
2998;SDS011;1509;51.964;7.628;2022-08-14T12:58:53;5.93;;;5.33;;
2998;SDS011;1509;51.964;7.628;2022-08-14T13:01:28;5.03;;;4.63;;
2998;SDS011;1509;51.964;7.628;2022-08-14T13:04:08;5.00;;;4.60;;
2998;SDS011;1509;51.964;7.628;2022-08-14T13:06:37;5.53;;;5.03;;
2998;SDS011;1509;51.964;7.628;2022-08-14T13:09:13;5.00;;;4.60;;
2998;SDS011;1509;51.964;7.628;2022-08-14T13:11:43;5.43;;;4.93;;
2998;SDS011;1509;51.964;7.628;2022-08-14T13:14:15;5.93;;;5.33;;
2998;SDS011;1509;51.964;7.628;2022-08-14T13:16:48;4.97;;;4.57;;
2998;SDS011;1509;51.964;7.628;2022-08-14T13:19:18;4.80;;;4.40;;
2998;SDS011;1509;51.964;7.628;2022-08-14T13:21:45;5.00;;;4.60;;
2998;SDS011;1509;51.964;7.628;2022-08-14T13:24:13;5.97;;;4.13;;
2998;SDS011;1509;51.964;7.628;2022-08-14T13:26:43;5.63;;;5.13;;
2998;SDS011;1509;51.964;7.628;2022-08-14T13:29:10;5.00;;;4.60;;
2998;SDS011;1509;51.964;7.628;2022-08-14T13:31:37;4.67;;;4.27;;
2998;SDS011;1509;51.964;7.628;2022-08-14T13:34:07;5.30;;;4.80;;
2998;SDS011;1509;51.964;7.628;2022-08-14T13:36:36;7.67;;;4.47;;
2998;SDS011;1509;51.964;7.628;2022-08-14T13:39:02;5.10;;;4.70;;
2998;SDS011;1509;51.964;7.628;2022-08-14T13:41:28;6.67;;;5.17;;
2998;SDS011;1509;51.964;7.628;2022-08-14T13:43:54;5.80;;;4.70;;
2998;SDS011;1509;51.964;7.628;2022-08-14T13:46:20;5.80;;;5.20;;
2998;SDS011;1509;51.964;7.628;2022-08-14T13:48:46;5.40;;;5.00;;
2998;SDS011;1509;51.964;7.628;2022-08-14T13:51:15;6.40;;;5.80;;
2998;SDS011;1509;51.964;7.628;2022-08-14T13:53:44;5.20;;;4.70;;
2998;SDS011;1509;51.964;7.628;2022-08-14T13:56:10;5.60;;;5.10;;
2998;SDS011;1509;51.964;7.628;2022-08-14T13:58:38;6.10;;;5.60;;
2998;SDS011;1509;51.964;7.628;2022-08-14T14:01:05;5.73;;;5.00;;
2998;SDS011;1509;51.964;7.628;2022-08-14T14:03:32;5.60;;;5.10;;
2998;SDS011;1509;51.964;7.628;2022-08-14T14:05:59;6.63;;;6.03;;
2998;SDS011;1509;51.964;7.628;2022-08-14T14:08:26;5.57;;;5.13;;
2998;SDS011;1509;51.964;7.628;2022-08-14T14:10:53;8.00;;;5.13;;
2998;SDS011;1509;51.964;7.628;2022-08-14T14:13:20;6.17;;;5.63;;
2998;SDS011;1509;51.964;7.628;2022-08-14T14:15:47;5.90;;;5.40;;
2998;SDS011;1509;51.964;7.628;2022-08-14T14:18:13;6.90;;;6.30;;
2998;SDS011;1509;51.964;7.628;2022-08-14T14:20:42;6.00;;;5.40;;
2998;SDS011;1509;51.964;7.628;2022-08-14T14:23:10;6.07;;;5.53;;
2998;SDS011;1509;51.964;7.628;2022-08-14T14:25:46;7.57;;;6.27;;
2998;SDS011;1509;51.964;7.628;2022-08-14T14:28:13;5.80;;;5.20;;
2998;SDS011;1509;51.964;7.628;2022-08-14T14:30:44;6.43;;;5.83;;
2998;SDS011;1509;51.964;7.628;2022-08-14T14:33:11;7.53;;;5.70;;
2998;SDS011;1509;51.964;7.628;2022-08-14T14:35:40;7.03;;;6.33;;
2998;SDS011;1509;51.964;7.628;2022-08-14T14:38:10;6.30;;;5.70;;
2998;SDS011;1509;51.964;7.628;2022-08-14T14:40:39;7.13;;;6.13;;
2998;SDS011;1509;51.964;7.628;2022-08-14T14:43:11;6.53;;;5.80;;
2998;SDS011;1509;51.964;7.628;2022-08-14T14:45:38;5.60;;;5.10;;
2998;SDS011;1509;51.964;7.628;2022-08-14T14:48:07;6.13;;;5.43;;
2998;SDS011;1509;51.964;7.628;2022-08-14T14:50:33;6.77;;;5.43;;
2998;SDS011;1509;51.964;7.628;2022-08-14T14:53:02;7.13;;;6.33;;
2998;SDS011;1509;51.964;7.628;2022-08-14T14:55:28;5.30;;;4.87;;
2998;SDS011;1509;51.964;7.628;2022-08-14T14:57:55;6.00;;;5.40;;
2998;SDS011;1509;51.964;7.628;2022-08-14T15:00:23;6.50;;;5.90;;
2998;SDS011;1509;51.964;7.628;2022-08-14T15:02:50;6.13;;;5.57;;
2998;SDS011;1509;51.964;7.628;2022-08-14T15:05:17;6.27;;;5.60;;
2998;SDS011;1509;51.964;7.628;2022-08-14T15:07:45;5.60;;;5.10;;
2998;SDS011;1509;51.964;7.628;2022-08-14T15:10:14;5.97;;;5.37;;
2998;SDS011;1509;51.964;7.628;2022-08-14T15:12:41;7.23;;;6.53;;
2998;SDS011;1509;51.964;7.628;2022-08-14T15:15:08;6.03;;;5.50;;
2998;SDS011;1509;51.964;7.628;2022-08-14T15:17:37;5.87;;;5.37;;
2998;SDS011;1509;51.964;7.628;2022-08-14T15:20:05;6.80;;;5.73;;
2998;SDS011;1509;51.964;7.628;2022-08-14T15:22:36;6.10;;;5.50;;
2998;SDS011;1509;51.964;7.628;2022-08-14T15:25:04;5.97;;;5.37;;
2998;SDS011;1509;51.964;7.628;2022-08-14T15:27:30;6.00;;;5.40;;
2998;SDS011;1509;51.964;7.628;2022-08-14T15:29:58;6.43;;;5.90;;
2998;SDS011;1509;51.964;7.628;2022-08-14T15:32:24;6.87;;;5.90;;
2998;SDS011;1509;51.964;7.628;2022-08-14T15:34:50;6.57;;;5.97;;
2998;SDS011;1509;51.964;7.628;2022-08-14T15:37:15;7.67;;;6.97;;
2998;SDS011;1509;51.964;7.628;2022-08-14T15:39:41;5.90;;;5.40;;
2998;SDS011;1509;51.964;7.628;2022-08-14T15:42:07;7.00;;;6.20;;
2998;SDS011;1509;51.964;7.628;2022-08-14T15:44:34;6.20;;;5.60;;
2998;SDS011;1509;51.964;7.628;2022-08-14T15:46:59;6.13;;;5.63;;
2998;SDS011;1509;51.964;7.628;2022-08-14T15:49:26;6.60;;;5.43;;